Flight Track Log - Related Links

Times and Time Zones

All times are in EDT time to prevent confusion due to time zone crossing. See the AAL1326 flight status page for this flight to view local times or setup timezone preferences in your user account.

Time Position Orientation Groundspeed Altitude Reporting Facility
EDT Latitude Longitude Course Direction KTS MPH feet Rate Location/Type
Thu 04:44:23 PM 39.3167 -94.7167 45° Northeast 168 193 1,500  Level Kansas City TRACON
Thu 04:46:00 PM 39.3997 -94.5726 46° Northeast  Level FlightAware Approximate
Thu 04:46:00 PM 39.4000 -94.6500 32° Northeast 248 285 4,400  Level Kansas City TRACON
Thu 04:46:19 PM 39.4103 -94.6339 50° Northeast 242 278 5,400 2,857 Climbing Kansas City Center
Thu 04:47:00 PM 39.4728 -94.4870 41° Northeast  Level FlightAware Approximate
Thu 04:47:24 PM 39.4558 -94.5717 47° Northeast 252 290 8,400  Level Kansas City Center
Thu 04:48:00 PM 39.5472 -94.4032 41° Northeast  Level FlightAware Approximate
Thu 04:48:24 PM 39.5172 -94.4856 47° Northeast 287 330 11,600  Level Kansas City Center
Thu 04:49:00 PM 39.6174 -94.3134 45° Northeast  Level FlightAware Approximate
Thu 04:49:28 PM 39.5803 -94.3989 47° Northeast 345 397 14,100  Level Kansas City Center
Thu 04:50:28 PM 39.6536 -94.3147 41° Northeast 365 420 16,700 2,758 Climbing Kansas City Center
Thu 04:51:32 PM 39.7417 -94.2097 43° Northeast 387 445 19,800 2,758 Climbing Kansas City Center
Thu 04:52:32 PM 39.8097 -94.0789 56° Northeast 410 472 22,400 2,146 Climbing Kansas City Center
Thu 04:53:35 PM 39.8450 -93.9508 70° East 431 496 24,200 1,824 Climbing Kansas City Center
Thu 04:54:37 PM 39.8883 -93.8022 69° East 440 506 26,200 2,049 Climbing Kansas City Center
Thu 04:55:38 PM 39.9422 -93.6211 69° East 451 519 28,400 1,935 Climbing Kansas City Center
Thu 04:56:41 PM 39.9869 -93.4664 69° East 457 526 30,200 1,258 Climbing Kansas City Center
Thu 04:57:42 PM 40.0317 -93.3100 69° East 460 529 31,000 384 Climbing Kansas City Center
Thu 04:58:46 PM 40.0742 -93.1594 70° East 449 517 31,000  Level Kansas City Center
Thu 04:59:47 PM 40.1231 -92.9844 70° East 443 510 31,000  Level Kansas City Center
Thu 05:00:50 PM 40.1647 -92.8383 69° East 446 513 31,000  Level Kansas City Center
Thu 05:01:50 PM 40.2119 -92.6669 70° East 448 516 31,000  Level Kansas City Center
Thu 05:02:52 PM 40.2522 -92.5219 70° East 445 512 31,000  Level Kansas City Center
Thu 05:03:55 PM 40.3011 -92.3472 70° East 454 522 31,000  Level Kansas City Center
Thu 05:04:56 PM 40.3414 -92.1972 71° East 458 527 31,000  Level Kansas City Center
Thu 05:05:59 PM 40.3828 -92.0431 71° East 453 521 31,000  Level Kansas City Center
Thu 05:07:00 PM 40.4244 -91.8881 71° East 453 521 31,000  Level Kansas City Center
Thu 05:08:04 PM 40.4658 -91.7322 71° East 456 525 31,000  Level Kansas City Center
Thu 05:08:45 PM 40.4994 -91.6086 70° East 453 521 31,000  Level Chicago Center
Thu 05:09:47 PM 40.5408 -91.4522 71° East 456 525 31,000  Level Chicago Center
Thu 05:10:49 PM 40.5961 -91.2753 68° East 451 519 31,000  Level Chicago Center
Thu 05:11:51 PM 40.6497 -91.1239 65° Northeast 453 521 31,000  Level Chicago Center
Thu 05:12:54 PM 40.7017 -90.9708 66° East 455 524 31,000  Level Chicago Center
Thu 05:13:56 PM 40.7539 -90.8178 66° East 458 527 31,000  Level Chicago Center
Thu 05:14:58 PM 40.8058 -90.6653 66° East 455 524 31,000  Level Chicago Center
Thu 05:16:00 PM 40.8558 -90.5139 66° East 448 516 31,000  Level Chicago Center
Thu 05:17:02 PM 40.9183 -90.3275 66° East 457 526 31,000 -48 Level Chicago Center
Thu 05:18:04 PM 40.9658 -90.1819 67° East 457 526 30,900 -585 Descending Chicago Center
Thu 05:19:05 PM 41.0211 -90.0169 66° East 456 525 29,800 -1,366 Descending Chicago Center
Thu 05:20:07 PM 41.0717 -89.8619 67° East 454 522 28,100 -1,887 Descending Chicago Center
Thu 05:21:09 PM 41.1186 -89.7133 67° East 438 504 25,900 -2,129 Descending Chicago Center
Thu 05:22:11 PM 41.1667 -89.5700 66° East 425 489 23,700 -2,129 Descending Chicago Center
Thu 05:23:13 PM 41.2219 -89.4389 61° Northeast 410 472 21,500 -2,129 Descending Chicago Center
Thu 05:24:15 PM 41.2742 -89.3067 62° Northeast 405 466 19,300 -2,129 Descending Chicago Center
Thu 05:25:17 PM 41.3297 -89.1689 62° Northeast 401 461 17,100 -2,129 Descending Chicago Center
Thu 05:26:19 PM 41.3808 -89.0400 62° Northeast 397 457 14,900 -2,274 Descending Chicago Center
Thu 05:27:21 PM 41.4394 -88.8894 63° Northeast 383 441 12,400 -1,887 Descending Chicago Center
Thu 05:28:23 PM 41.4872 -88.7717 62° Northeast 364 419 11,000 -677 Descending Chicago Center
Thu 05:29:25 PM 41.5336 -88.6533 62° Northeast 361 415 11,000  Level Chicago Center
Thu 05:30:28 PM 41.5803 -88.5356 62° Northeast 360 414 11,000 -480 Level Chicago Center
Thu 05:31:30 PM 41.6336 -88.4236 57° Northeast 358 412 10,000 -484 Descending Chicago Center
Thu 05:32:32 PM 41.6936 -88.3194 52° Northeast 352 405 10,000  Level Chicago Center
Thu 05:33:34 PM 41.7658 -88.1961 52° Northeast 349 402 10,000 -532 Level Chicago Center
Thu 05:34:36 PM 41.8181 -88.1086 51° Northeast 302 348 8,900 -1,065 Descending Chicago Center
Thu 05:35:38 PM 41.8661 -88.0214 53° Northeast 294 338 7,800 -839 Descending Chicago Center
Thu 05:36:09 PM 41.8833 -87.9667 67° East 295 339 7,600 -396 Descending Chicago TRACON
Thu 05:37:09 PM 41.8833 -87.8667 90° East 284 327 7,200 -700 Descending Chicago TRACON
Thu 05:38:09 PM 41.8833 -87.7667 90° East 249 287 6,200 -1,350 Descending Chicago TRACON
Thu 05:39:09 PM 41.9000 -87.6833 75° East 240 276 4,500 -1,700 Descending Chicago TRACON

Login

Don't have an account? Register now (free) for customized features, flight alerts, and more!